createdAt,value
2022-07-30T00:00:19.745Z,51.99
2022-07-30T00:02:55.180Z,52.18
2022-07-30T00:05:24.037Z,52.49
2022-07-30T00:07:52.559Z,52.54
2022-07-30T00:10:23.216Z,52.58
2022-07-30T00:12:52.008Z,52.52
2022-07-30T00:15:20.575Z,52.34
2022-07-30T00:17:49.274Z,53.21
2022-07-30T00:20:19.372Z,53.21
2022-07-30T00:22:48.101Z,53.73
2022-07-30T00:25:16.727Z,53.88
2022-07-30T00:27:45.530Z,54.08
2022-07-30T00:30:14.891Z,54.36
2022-07-30T00:32:45.297Z,54.33
2022-07-30T00:35:15.410Z,54.79
2022-07-30T00:37:45.828Z,54.72
2022-07-30T00:40:15.091Z,54.54
2022-07-30T00:42:45.628Z,54.99
2022-07-30T00:45:15.791Z,55.01
2022-07-30T00:47:44.924Z,54.97
2022-07-30T00:50:15.031Z,55.38
2022-07-30T00:52:45.324Z,55.40
2022-07-30T00:55:15.831Z,55.46
2022-07-30T00:57:44.502Z,55.57
2022-07-30T01:00:16.137Z,55.61
2022-07-30T01:02:45.089Z,55.56
2022-07-30T01:05:14.889Z,56.04
2022-07-30T01:07:43.699Z,56.17
2022-07-30T01:10:15.656Z,56.00
2022-07-30T01:12:46.942Z,56.29
2022-07-30T01:15:16.481Z,56.37
2022-07-30T01:17:52.768Z,56.94
2022-07-30T01:20:27.282Z,56.71
2022-07-30T01:23:03.580Z,56.84
2022-07-30T01:25:57.311Z,57.38
2022-07-30T01:28:30.031Z,57.18
2022-07-30T01:31:00.361Z,57.52
2022-07-30T01:33:31.005Z,57.40
2022-07-30T01:36:03.126Z,57.28
2022-07-30T01:38:34.974Z,57.84
2022-07-30T01:41:07.651Z,58.21
2022-07-30T01:43:37.357Z,58.46
2022-07-30T01:46:08.224Z,58.18
2022-07-30T01:48:41.819Z,58.31
2022-07-30T01:51:13.851Z,58.63
2022-07-30T01:53:49.270Z,58.84
2022-07-30T01:56:24.685Z,58.70
2022-07-30T01:58:56.906Z,58.96
2022-07-30T02:01:27.479Z,59.28
2022-07-30T02:04:02.134Z,59.00
2022-07-30T02:06:35.531Z,59.15
2022-07-30T02:09:11.148Z,59.55
2022-07-30T02:12:04.372Z,59.40
2022-07-30T02:14:40.345Z,58.97
2022-07-30T02:17:18.465Z,58.90
2022-07-30T02:19:54.303Z,59.14
2022-07-30T02:22:25.711Z,59.06
2022-07-30T02:24:56.345Z,59.05
2022-07-30T02:27:29.791Z,58.87
2022-07-30T02:30:01.635Z,58.84
2022-07-30T02:32:37.171Z,59.24
2022-07-30T02:35:11.604Z,59.02
2022-07-30T02:37:44.480Z,58.96
2022-07-30T02:40:16.771Z,59.31
2022-07-30T02:42:48.927Z,58.97
2022-07-30T02:45:22.635Z,59.39
2022-07-30T02:47:53.793Z,59.09
2022-07-30T02:50:25.766Z,59.10
2022-07-30T02:52:57.360Z,59.40
2022-07-30T02:55:27.956Z,59.78
2022-07-30T02:58:00.833Z,59.60
2022-07-30T03:00:31.156Z,59.52
2022-07-30T03:03:02.119Z,59.08
2022-07-30T03:05:31.107Z,59.07
2022-07-30T03:08:02.223Z,59.17
2022-07-30T03:10:32.600Z,58.50
2022-07-30T03:13:03.740Z,58.83
2022-07-30T03:15:34.253Z,58.88
2022-07-30T03:18:12.052Z,58.76
2022-07-30T03:20:41.425Z,58.42
2022-07-30T03:23:11.521Z,57.95
2022-07-30T03:25:42.490Z,57.78
2022-07-30T03:28:14.419Z,57.61
2022-07-30T03:30:44.145Z,57.51
2022-07-30T03:33:13.632Z,58.11
2022-07-30T03:35:45.040Z,57.72
2022-07-30T03:38:14.512Z,56.66
2022-07-30T03:40:43.922Z,56.82
2022-07-30T03:43:32.452Z,56.76
2022-07-30T03:46:04.134Z,56.93
2022-07-30T03:48:36.094Z,56.75
2022-07-30T03:51:05.329Z,56.04
2022-07-30T03:53:34.401Z,55.70
2022-07-30T03:56:41.722Z,55.77
2022-07-30T03:59:16.852Z,55.69
2022-07-30T04:01:46.082Z,55.20
2022-07-30T04:04:26.396Z,55.19
2022-07-30T04:06:56.103Z,55.80
2022-07-30T04:09:24.933Z,55.81
2022-07-30T04:11:53.502Z,54.72
2022-07-30T04:14:28.849Z,54.47
2022-07-30T04:17:09.217Z,53.77
2022-07-30T04:19:43.380Z,53.91
2022-07-30T04:22:16.253Z,53.54
2022-07-30T04:24:46.507Z,53.05
2022-07-30T04:27:15.604Z,53.49
2022-07-30T04:29:45.936Z,53.23
2022-07-30T04:32:14.416Z,52.82
2022-07-30T04:35:12.155Z,52.35
2022-07-30T04:38:15.111Z,51.59
2022-07-30T04:40:47.326Z,51.23
2022-07-30T04:43:16.421Z,50.85
2022-07-30T04:45:46.852Z,50.29
2022-07-30T04:48:15.496Z,49.97
2022-07-30T04:50:48.240Z,50.14
2022-07-30T04:53:20.960Z,50.79
2022-07-30T04:55:55.412Z,50.88
2022-07-30T04:58:28.351Z,50.20
2022-07-30T05:00:59.444Z,49.45
2022-07-30T05:03:33.050Z,50.01
2022-07-30T05:06:02.664Z,49.35
2022-07-30T05:08:39.214Z,49.41
2022-07-30T05:11:13.364Z,48.35
2022-07-30T05:13:46.410Z,47.72
2022-07-30T05:16:18.618Z,47.50
2022-07-30T05:18:47.286Z,47.16
2022-07-30T05:21:15.808Z,46.78
2022-07-30T05:23:50.564Z,46.08
2022-07-30T05:26:29.501Z,45.39
2022-07-30T05:28:59.741Z,45.52
2022-07-30T05:31:38.081Z,45.62
2022-07-30T05:34:08.097Z,44.68
2022-07-30T05:36:44.731Z,44.82
2022-07-30T05:39:16.512Z,43.75
2022-07-30T05:41:51.456Z,44.07
2022-07-30T05:44:49.399Z,43.64
2022-07-30T05:47:21.122Z,44.15
2022-07-30T05:49:51.655Z,44.53
2022-07-30T05:52:20.572Z,43.80
2022-07-30T05:54:49.273Z,43.04
2022-07-30T05:57:26.807Z,44.15
2022-07-30T05:59:55.393Z,44.49
2022-07-30T06:02:46.520Z,43.91
2022-07-30T06:05:17.824Z,43.81
2022-07-30T06:07:47.368Z,43.90
2022-07-30T06:10:17.072Z,44.13
2022-07-30T06:12:45.613Z,43.95
2022-07-30T06:15:14.246Z,43.80
2022-07-30T06:17:45.088Z,42.77
2022-07-30T06:20:49.637Z,43.90
2022-07-30T06:23:25.230Z,43.68
2022-07-30T06:26:17.966Z,43.21
2022-07-30T06:28:46.984Z,43.06
2022-07-30T06:31:20.307Z,43.39
2022-07-30T06:33:48.859Z,43.20
2022-07-30T06:36:18.916Z,43.27
2022-07-30T06:39:00.033Z,42.88
2022-07-30T06:41:47.140Z,43.01
2022-07-30T06:44:16.610Z,43.17
2022-07-30T06:46:53.947Z,42.16
2022-07-30T06:49:26.602Z,42.94
2022-07-30T06:51:57.138Z,42.57
2022-07-30T06:54:25.791Z,42.44
2022-07-30T06:56:54.544Z,42.31
2022-07-30T06:59:23.158Z,44.30
2022-07-30T07:02:11.720Z,42.33
2022-07-30T07:05:00.451Z,41.21
2022-07-30T07:07:41.158Z,40.69
2022-07-30T07:10:12.843Z,40.40
2022-07-30T07:12:47.446Z,40.83
2022-07-30T07:15:19.216Z,40.82
2022-07-30T07:17:51.285Z,40.86
2022-07-30T07:20:34.120Z,41.31
2022-07-30T07:23:09.184Z,42.10
2022-07-30T07:25:40.873Z,40.90
2022-07-30T07:28:12.094Z,40.64
2022-07-30T07:30:45.348Z,40.84
2022-07-30T07:33:15.680Z,40.47
2022-07-30T07:35:48.727Z,40.92
2022-07-30T07:38:33.122Z,40.28
2022-07-30T07:41:01.780Z,41.38
2022-07-30T07:43:31.141Z,40.48
2022-07-30T07:46:01.672Z,41.45
2022-07-30T07:48:33.408Z,40.59
2022-07-30T07:51:46.810Z,41.00
2022-07-30T07:54:22.029Z,40.70
2022-07-30T07:56:53.353Z,40.66
2022-07-30T07:59:39.670Z,40.21
2022-07-30T08:02:14.914Z,39.64
2022-07-30T08:04:52.925Z,40.38
2022-07-30T08:07:45.079Z,40.45
2022-07-30T08:10:33.766Z,39.97
2022-07-30T08:13:51.644Z,40.08
2022-07-30T08:16:32.577Z,40.41
2022-07-30T08:19:07.382Z,39.99
2022-07-30T08:21:41.338Z,39.63
2022-07-30T08:24:10.471Z,39.17
2022-07-30T08:26:40.409Z,39.86
2022-07-30T08:29:09.809Z,39.24
2022-07-30T08:31:40.532Z,38.55
2022-07-30T08:34:09.240Z,36.53
2022-07-30T08:36:37.848Z,36.33
2022-07-30T08:39:06.592Z,37.68
2022-07-30T08:41:37.096Z,37.56
2022-07-30T08:44:13.100Z,37.35
2022-07-30T08:46:46.897Z,37.53
2022-07-30T08:49:30.464Z,37.42
2022-07-30T08:52:00.063Z,37.73
2022-07-30T08:54:45.238Z,38.84
2022-07-30T08:57:14.346Z,39.58
2022-07-30T08:59:59.363Z,38.91
2022-07-30T09:21:58.472Z,37.72
2022-07-30T09:24:47.815Z,37.65
2022-07-30T09:27:47.506Z,37.05
2022-07-30T09:30:47.610Z,36.44
2022-07-30T09:33:38.066Z,37.54
2022-07-30T09:36:33.404Z,35.42
2022-07-30T09:39:37.232Z,35.17
2022-07-30T09:42:35.066Z,36.83
2022-07-30T09:45:11.372Z,36.38
2022-07-30T09:47:48.490Z,34.47
2022-07-30T09:50:29.472Z,34.63
2022-07-30T09:53:08.882Z,33.99
2022-07-30T09:55:41.993Z,33.76
2022-07-30T09:58:16.613Z,34.48
2022-07-30T10:00:59.670Z,33.39
2022-07-30T10:03:52.358Z,32.41
2022-07-30T10:06:37.778Z,32.34
2022-07-30T10:09:30.184Z,30.84
2022-07-30T10:12:00.976Z,31.39
2022-07-30T10:14:42.708Z,30.83
2022-07-30T10:17:14.928Z,31.67
2022-07-30T10:19:56.567Z,31.75
2022-07-30T10:22:50.718Z,31.64
2022-07-30T10:25:49.743Z,31.99
2022-07-30T10:28:52.301Z,31.58
2022-07-30T10:31:49.128Z,32.07
2022-07-30T10:34:10.785Z,32.20
2022-07-30T10:36:42.952Z,32.74
2022-07-30T10:39:15.402Z,31.75
2022-07-30T10:41:53.901Z,33.34
2022-07-30T10:44:52.194Z,32.02
2022-07-30T10:47:23.734Z,32.28
2022-07-30T10:50:12.154Z,32.49
2022-07-30T10:52:54.089Z,32.07
2022-07-30T10:55:36.985Z,30.86
2022-07-30T10:58:09.864Z,31.47
2022-07-30T11:01:00.091Z,30.90
2022-07-30T11:03:40.316Z,31.25
2022-07-30T11:06:30.548Z,31.22
2022-07-30T11:08:59.389Z,30.61
2022-07-30T11:12:02.116Z,31.02
2022-07-30T11:15:07.360Z,29.94
2022-07-30T11:18:04.389Z,29.64
2022-07-30T11:20:34.139Z,31.06
2022-07-30T11:23:39.291Z,29.58
2022-07-30T11:26:14.126Z,30.54
2022-07-30T11:28:45.773Z,31.23
2022-07-30T11:31:55.711Z,28.66
2022-07-30T11:34:30.681Z,28.53
2022-07-30T11:37:22.204Z,28.64
2022-07-30T11:40:13.966Z,28.68
2022-07-30T11:42:43.777Z,30.40
2022-07-30T11:45:30.718Z,29.65
2022-07-30T11:48:03.579Z,30.55
2022-07-30T11:50:36.220Z,30.83
2022-07-30T11:53:07.628Z,29.49
2022-07-30T11:55:38.933Z,29.92
2022-07-30T11:58:09.669Z,28.85
2022-07-30T12:00:40.140Z,27.19
2022-07-30T12:03:13.060Z,28.36
2022-07-30T12:05:43.694Z,29.18
2022-07-30T12:08:31.737Z,30.11
2022-07-30T12:11:02.950Z,29.18
2022-07-30T12:13:44.427Z,28.93
2022-07-30T12:16:17.728Z,28.45
2022-07-30T12:18:47.613Z,28.17
2022-07-30T12:21:17.778Z,28.26
2022-07-30T12:23:55.773Z,28.50
2022-07-30T12:26:26.797Z,28.74
2022-07-30T12:28:57.245Z,28.41
2022-07-30T12:31:25.804Z,28.45
2022-07-30T12:33:59.045Z,26.63
2022-07-30T12:36:32.044Z,26.79
2022-07-30T12:39:01.762Z,26.24
2022-07-30T12:41:44.049Z,27.41
2022-07-30T12:44:32.804Z,27.80
2022-07-30T12:47:01.746Z,28.17
2022-07-30T12:49:39.564Z,27.49
2022-07-30T12:52:27.421Z,27.95
2022-07-30T12:55:07.029Z,27.73
2022-07-30T12:58:01.597Z,26.82
2022-07-30T13:00:36.190Z,26.89
2022-07-30T13:03:21.501Z,26.33
2022-07-30T13:05:52.052Z,26.97
2022-07-30T13:08:53.877Z,26.04
2022-07-30T13:11:24.415Z,27.36
2022-07-30T13:13:53.650Z,27.30
2022-07-30T13:16:22.684Z,26.86
2022-07-30T13:18:51.099Z,27.17
2022-07-30T13:21:19.529Z,28.10
2022-07-30T13:23:48.064Z,26.83
2022-07-30T13:26:17.924Z,26.80
2022-07-30T13:28:47.233Z,27.60
2022-07-30T13:31:15.717Z,27.22
2022-07-30T13:33:44.297Z,27.30
2022-07-30T13:36:12.808Z,27.10
2022-07-30T13:38:41.241Z,27.33
2022-07-30T13:41:09.919Z,27.17
2022-07-30T13:43:41.664Z,27.79
2022-07-30T13:46:10.259Z,27.27
2022-07-30T13:48:38.943Z,27.97
2022-07-30T13:51:07.533Z,28.11
2022-07-30T13:53:36.240Z,28.02
2022-07-30T13:56:05.436Z,27.78
2022-07-30T13:58:42.641Z,27.58
2022-07-30T14:01:17.869Z,28.14
2022-07-30T14:03:49.930Z,27.05
2022-07-30T14:06:19.193Z,27.13
2022-07-30T14:08:47.865Z,27.57
2022-07-30T14:11:17.010Z,27.83
2022-07-30T14:13:47.056Z,27.80
2022-07-30T14:16:42.383Z,27.94
2022-07-30T14:19:04.274Z,28.41
2022-07-30T14:21:32.754Z,28.76
2022-07-30T14:24:01.380Z,29.09
2022-07-30T14:26:36.222Z,28.57
2022-07-30T14:29:06.749Z,28.52
2022-07-30T14:31:35.646Z,29.31
2022-07-30T14:34:05.593Z,29.62
2022-07-30T14:36:34.198Z,28.99
2022-07-30T14:39:04.328Z,29.03
2022-07-30T14:41:33.486Z,28.93
2022-07-30T14:44:02.626Z,28.56
2022-07-30T14:46:32.643Z,29.17
2022-07-30T14:49:01.126Z,29.59
2022-07-30T14:51:33.920Z,29.54
2022-07-30T14:54:03.510Z,29.61
2022-07-30T14:56:32.073Z,29.22
2022-07-30T14:59:01.228Z,29.49
2022-07-30T15:01:29.867Z,29.30
2022-07-30T15:04:00.153Z,30.65
2022-07-30T15:06:29.099Z,30.11
2022-07-30T15:08:57.562Z,29.84
2022-07-30T15:11:26.039Z,29.82
2022-07-30T15:13:54.571Z,29.75
2022-07-30T15:16:23.069Z,29.75
2022-07-30T15:18:51.561Z,30.20
2022-07-30T15:21:21.412Z,30.47
2022-07-30T15:23:50.301Z,30.30
2022-07-30T15:26:18.701Z,30.63
2022-07-30T15:28:47.167Z,30.81
2022-07-30T15:31:15.791Z,29.69
2022-07-30T15:33:45.110Z,30.07
2022-07-30T15:36:13.675Z,29.20
2022-07-30T15:38:43.539Z,29.32
2022-07-30T15:41:13.882Z,29.61
2022-07-30T15:43:42.602Z,29.55
2022-07-30T15:46:11.185Z,29.50
2022-07-30T15:48:39.877Z,28.96
2022-07-30T15:51:08.552Z,29.31
2022-07-30T15:53:37.206Z,29.30
2022-07-30T15:56:07.390Z,28.58
2022-07-30T15:58:38.272Z,29.16
2022-07-30T16:01:10.443Z,29.60
2022-07-30T16:03:39.056Z,28.82
2022-07-30T16:06:07.777Z,29.71
2022-07-30T16:08:36.216Z,29.25
2022-07-30T16:11:05.226Z,29.37
2022-07-30T16:13:35.140Z,28.82
2022-07-30T16:16:04.183Z,28.84
2022-07-30T16:18:32.585Z,28.83
2022-07-30T16:21:01.473Z,29.51
2022-07-30T16:23:36.327Z,29.22
2022-07-30T16:26:05.741Z,29.70
2022-07-30T16:28:35.591Z,30.15
2022-07-30T16:31:05.299Z,30.32
2022-07-30T16:33:33.855Z,30.59
2022-07-30T16:36:02.314Z,30.11
2022-07-30T16:38:31.205Z,30.35
2022-07-30T16:40:59.679Z,30.49
2022-07-30T16:43:28.188Z,31.09
2022-07-30T16:45:58.501Z,30.55
2022-07-30T16:48:27.746Z,29.82
2022-07-30T16:50:56.227Z,29.93
2022-07-30T16:53:24.679Z,29.78
2022-07-30T16:55:53.181Z,29.74
2022-07-30T16:58:21.648Z,30.09
2022-07-30T17:00:58.434Z,29.65
2022-07-30T17:03:27.169Z,29.34
2022-07-30T17:05:56.045Z,29.56
2022-07-30T17:08:25.323Z,29.88
2022-07-30T17:10:54.127Z,29.81
2022-07-30T17:13:23.066Z,29.83
2022-07-30T17:15:51.852Z,29.65
2022-07-30T17:18:21.739Z,29.88
2022-07-30T17:20:50.180Z,30.42
2022-07-30T17:23:18.791Z,31.04
2022-07-30T17:25:47.239Z,31.43
2022-07-30T17:28:17.751Z,31.75
2022-07-30T17:30:46.183Z,32.19
2022-07-30T17:33:14.631Z,31.71
2022-07-30T17:35:44.584Z,31.91
2022-07-30T17:38:12.982Z,32.03
2022-07-30T17:40:41.532Z,31.86
2022-07-30T17:43:11.644Z,32.78
2022-07-30T17:45:42.804Z,32.85
2022-07-30T17:48:11.378Z,33.28
2022-07-30T17:50:39.823Z,33.47
2022-07-30T17:53:09.921Z,34.27
2022-07-30T17:55:38.560Z,32.53
2022-07-30T17:58:07.462Z,32.07
2022-07-30T18:00:36.051Z,31.91
2022-07-30T18:03:04.919Z,32.23
2022-07-30T18:05:33.675Z,32.38
2022-07-30T18:08:02.262Z,32.71
2022-07-30T18:10:32.470Z,33.06
2022-07-30T18:13:19.265Z,32.96
2022-07-30T18:15:49.418Z,33.06
2022-07-30T18:18:17.887Z,33.30
2022-07-30T18:20:48.275Z,33.93
2022-07-30T18:23:19.272Z,34.60
2022-07-30T18:25:51.797Z,34.85
2022-07-30T18:28:23.064Z,34.92
2022-07-30T18:30:51.661Z,34.22
2022-07-30T18:33:20.212Z,34.47
2022-07-30T18:35:48.748Z,35.39
2022-07-30T18:38:17.353Z,35.62
2022-07-30T18:40:57.692Z,36.01
2022-07-30T18:43:28.657Z,36.60
2022-07-30T18:45:58.097Z,36.47
2022-07-30T18:48:26.907Z,36.48
2022-07-30T18:50:55.440Z,36.31
2022-07-30T18:53:24.664Z,36.72
2022-07-30T18:55:53.162Z,37.00
2022-07-30T18:58:22.031Z,37.36
2022-07-30T19:00:51.919Z,36.97
2022-07-30T19:03:23.073Z,37.71
2022-07-30T19:05:51.850Z,37.33
2022-07-30T19:08:20.300Z,37.62
2022-07-30T19:10:48.949Z,37.84
2022-07-30T19:13:17.388Z,38.00
2022-07-30T19:15:46.044Z,38.21
2022-07-30T19:18:15.893Z,38.08
2022-07-30T19:20:44.654Z,36.38
2022-07-30T19:23:13.793Z,37.61
2022-07-30T19:25:42.307Z,38.31
2022-07-30T19:28:13.531Z,38.55
2022-07-30T19:30:42.167Z,38.68
2022-07-30T19:33:15.434Z,38.79
2022-07-30T19:35:47.331Z,39.16
2022-07-30T19:38:21.620Z,39.25
2022-07-30T19:40:50.869Z,39.51
2022-07-30T19:43:23.974Z,39.23
2022-07-30T19:45:53.226Z,39.40
2022-07-30T19:48:29.105Z,39.64
2022-07-30T19:53:51.190Z,39.63
2022-07-30T19:56:20.616Z,39.96
2022-07-30T19:58:52.072Z,39.82
2022-07-30T20:01:22.372Z,40.25
2022-07-30T20:03:51.604Z,40.55
2022-07-30T20:06:22.222Z,40.67
2022-07-30T20:08:52.480Z,40.93
2022-07-30T20:11:35.974Z,40.76
2022-07-30T20:14:05.508Z,41.09
2022-07-30T20:16:35.640Z,41.14
2022-07-30T20:19:04.708Z,40.72
2022-07-30T20:21:56.415Z,40.67
2022-07-30T20:24:24.729Z,41.03
2022-07-30T20:26:54.085Z,41.23
2022-07-30T20:29:23.505Z,41.38
2022-07-30T20:31:53.561Z,41.46
2022-07-30T20:34:25.760Z,41.82
2022-07-30T20:36:56.720Z,41.85
2022-07-30T20:39:25.991Z,41.91
2022-07-30T20:42:08.003Z,42.21
2022-07-30T20:44:38.305Z,42.32
2022-07-30T20:47:08.184Z,42.14
2022-07-30T20:49:37.301Z,42.41
2022-07-30T20:52:09.765Z,42.54
2022-07-30T20:54:43.725Z,43.02
2022-07-30T20:57:15.715Z,42.83
2022-07-30T20:59:48.805Z,42.74
2022-07-30T21:02:17.401Z,42.86
2022-07-30T21:04:59.406Z,42.58
2022-07-30T21:07:36.496Z,42.88
2022-07-30T21:10:07.342Z,43.37
2022-07-30T21:12:36.679Z,43.42
2022-07-30T21:15:11.730Z,43.48
2022-07-30T21:17:52.305Z,44.06
2022-07-30T21:20:27.452Z,43.95
2022-07-30T21:23:04.624Z,43.92
2022-07-30T21:25:33.663Z,43.96
2022-07-30T21:28:03.259Z,43.81
2022-07-30T21:30:33.545Z,43.68
2022-07-30T21:33:02.059Z,44.24
2022-07-30T21:35:31.692Z,43.97
2022-07-30T21:38:02.319Z,44.47
2022-07-30T21:40:31.697Z,44.31
2022-07-30T21:43:00.176Z,44.20
2022-07-30T21:45:38.712Z,44.09
2022-07-30T21:48:10.741Z,44.20
2022-07-30T21:50:40.147Z,44.22
2022-07-30T21:53:10.135Z,44.42
2022-07-30T21:55:53.240Z,44.31
2022-07-30T21:58:25.867Z,44.38
2022-07-30T22:01:17.862Z,44.25
2022-07-30T22:04:01.255Z,44.67
2022-07-30T22:06:33.897Z,44.64
2022-07-30T22:09:10.080Z,44.58
2022-07-30T22:11:48.404Z,44.55
2022-07-30T22:14:16.901Z,44.68
2022-07-30T22:16:46.458Z,44.78
2022-07-30T22:19:15.539Z,44.93
2022-07-30T22:21:47.573Z,45.24
2022-07-30T22:24:29.264Z,44.88
2022-07-30T22:27:01.715Z,45.57
2022-07-30T22:29:43.047Z,45.77
2022-07-30T22:32:12.048Z,46.21
2022-07-30T22:34:40.501Z,46.19
2022-07-30T22:39:59.080Z,45.47
2022-07-30T22:42:27.877Z,45.79
2022-07-30T22:44:56.624Z,45.80
2022-07-30T22:47:53.912Z,45.92
2022-07-30T22:54:02.759Z,46.20
2022-07-30T22:55:52.999Z,46.47
2022-07-30T22:58:26.368Z,46.27
2022-07-30T23:00:55.379Z,46.52
2022-07-30T23:03:23.907Z,46.78
2022-07-30T23:05:56.648Z,46.97
2022-07-30T23:08:30.290Z,47.39
2022-07-30T23:11:01.161Z,47.09
2022-07-30T23:12:15.155Z,39.54
2022-07-30T23:12:30.585Z,46.09
2022-07-30T23:12:31.317Z,46.08
2022-07-30T23:13:30.584Z,47.44
2022-07-30T23:15:59.166Z,47.31
2022-07-30T23:18:27.617Z,47.51
2022-07-30T23:21:00.282Z,47.23
2022-07-30T23:23:30.776Z,47.80
2022-07-30T23:26:04.307Z,47.58
2022-07-30T23:28:32.954Z,47.75
2022-07-30T23:31:01.824Z,47.59
2022-07-30T23:33:30.722Z,47.67
2022-07-30T23:36:00.330Z,47.85
2022-07-30T23:38:29.071Z,47.86
2022-07-30T23:41:01.514Z,48.01
2022-07-30T23:43:31.447Z,47.97
2022-07-30T23:46:00.051Z,47.66
2022-07-30T23:48:29.414Z,48.21
2022-07-30T23:50:58.033Z,48.95
2022-07-30T23:53:27.021Z,48.34
2022-07-30T23:55:55.511Z,48.37
2022-07-30T23:58:24.036Z,48.25
